sensor_id;sensor_type;location;lat;lon;timestamp;P1;durP1;ratioP1;P2;durP2;ratioP2
18172;SDS011;9211;48.818;9.312;2022-12-07T00:01:26;13.45;;;7.57;;
18172;SDS011;9211;48.818;9.312;2022-12-07T00:03:55;13.02;;;7.43;;
18172;SDS011;9211;48.818;9.312;2022-12-07T00:06:30;13.10;;;7.72;;
18172;SDS011;9211;48.818;9.312;2022-12-07T00:08:58;13.70;;;7.50;;
18172;SDS011;9211;48.818;9.312;2022-12-07T00:11:25;13.82;;;7.80;;
18172;SDS011;9211;48.818;9.312;2022-12-07T00:13:52;14.32;;;7.65;;
18172;SDS011;9211;48.818;9.312;2022-12-07T00:16:21;11.73;;;7.30;;
18172;SDS011;9211;48.818;9.312;2022-12-07T00:18:50;15.27;;;7.70;;
18172;SDS011;9211;48.818;9.312;2022-12-07T00:21:18;13.95;;;7.63;;
18172;SDS011;9211;48.818;9.312;2022-12-07T00:23:49;15.82;;;8.00;;
18172;SDS011;9211;48.818;9.312;2022-12-07T00:26:19;15.18;;;7.75;;
18172;SDS011;9211;48.818;9.312;2022-12-07T00:28:47;11.20;;;7.57;;
18172;SDS011;9211;48.818;9.312;2022-12-07T00:31:15;12.82;;;7.63;;
18172;SDS011;9211;48.818;9.312;2022-12-07T00:33:44;12.02;;;8.13;;
18172;SDS011;9211;48.818;9.312;2022-12-07T00:36:12;12.90;;;7.70;;
18172;SDS011;9211;48.818;9.312;2022-12-07T00:38:40;13.68;;;7.57;;
18172;SDS011;9211;48.818;9.312;2022-12-07T00:41:10;12.13;;;7.72;;
18172;SDS011;9211;48.818;9.312;2022-12-07T00:43:39;13.90;;;8.02;;
18172;SDS011;9211;48.818;9.312;2022-12-07T00:46:07;13.70;;;8.00;;
18172;SDS011;9211;48.818;9.312;2022-12-07T00:48:35;13.85;;;8.38;;
18172;SDS011;9211;48.818;9.312;2022-12-07T00:51:02;13.50;;;8.35;;
18172;SDS011;9211;48.818;9.312;2022-12-07T00:53:30;14.13;;;8.80;;
18172;SDS011;9211;48.818;9.312;2022-12-07T00:55:57;12.43;;;7.80;;
18172;SDS011;9211;48.818;9.312;2022-12-07T00:58:25;13.10;;;8.23;;
18172;SDS011;9211;48.818;9.312;2022-12-07T01:00:52;12.27;;;8.02;;
18172;SDS011;9211;48.818;9.312;2022-12-07T01:03:19;13.10;;;7.97;;
18172;SDS011;9211;48.818;9.312;2022-12-07T01:05:50;13.93;;;8.57;;
18172;SDS011;9211;48.818;9.312;2022-12-07T01:08:18;13.45;;;8.45;;
18172;SDS011;9211;48.818;9.312;2022-12-07T01:10:45;12.77;;;7.75;;
18172;SDS011;9211;48.818;9.312;2022-12-07T01:13:12;13.68;;;8.13;;
18172;SDS011;9211;48.818;9.312;2022-12-07T01:15:41;11.65;;;7.85;;
18172;SDS011;9211;48.818;9.312;2022-12-07T01:18:09;15.02;;;8.10;;
18172;SDS011;9211;48.818;9.312;2022-12-07T01:20:36;12.18;;;7.82;;
18172;SDS011;9211;48.818;9.312;2022-12-07T01:23:03;12.43;;;7.95;;
18172;SDS011;9211;48.818;9.312;2022-12-07T01:25:30;13.30;;;8.48;;
18172;SDS011;9211;48.818;9.312;2022-12-07T01:27:57;14.07;;;8.18;;
18172;SDS011;9211;48.818;9.312;2022-12-07T01:30:24;14.48;;;8.23;;
18172;SDS011;9211;48.818;9.312;2022-12-07T01:32:52;13.43;;;8.17;;
18172;SDS011;9211;48.818;9.312;2022-12-07T01:35:19;12.23;;;8.02;;
18172;SDS011;9211;48.818;9.312;2022-12-07T01:37:46;12.75;;;7.60;;
18172;SDS011;9211;48.818;9.312;2022-12-07T01:40:13;13.00;;;7.90;;
18172;SDS011;9211;48.818;9.312;2022-12-07T01:42:40;14.70;;;8.20;;
18172;SDS011;9211;48.818;9.312;2022-12-07T01:48:12;13.48;;;8.23;;
18172;SDS011;9211;48.818;9.312;2022-12-07T01:50:43;13.43;;;8.05;;
18172;SDS011;9211;48.818;9.312;2022-12-07T01:53:13;14.20;;;7.93;;
18172;SDS011;9211;48.818;9.312;2022-12-07T01:55:42;15.43;;;8.70;;
18172;SDS011;9211;48.818;9.312;2022-12-07T01:58:12;13.55;;;8.43;;
18172;SDS011;9211;48.818;9.312;2022-12-07T02:00:40;13.32;;;8.48;;
18172;SDS011;9211;48.818;9.312;2022-12-07T02:03:08;13.25;;;8.15;;
18172;SDS011;9211;48.818;9.312;2022-12-07T02:05:41;15.23;;;8.85;;
18172;SDS011;9211;48.818;9.312;2022-12-07T02:08:10;15.63;;;8.90;;
18172;SDS011;9211;48.818;9.312;2022-12-07T02:10:38;13.52;;;8.50;;
18172;SDS011;9211;48.818;9.312;2022-12-07T02:13:06;15.20;;;8.75;;
18172;SDS011;9211;48.818;9.312;2022-12-07T02:15:46;13.95;;;8.57;;
18172;SDS011;9211;48.818;9.312;2022-12-07T02:18:31;13.53;;;8.27;;
18172;SDS011;9211;48.818;9.312;2022-12-07T02:21:08;17.27;;;9.40;;
18172;SDS011;9211;48.818;9.312;2022-12-07T02:23:42;16.38;;;9.25;;
18172;SDS011;9211;48.818;9.312;2022-12-07T02:26:38;15.10;;;8.97;;
18172;SDS011;9211;48.818;9.312;2022-12-07T02:29:22;16.52;;;9.23;;
18172;SDS011;9211;48.818;9.312;2022-12-07T02:31:54;16.77;;;10.00;;
18172;SDS011;9211;48.818;9.312;2022-12-07T02:34:35;15.57;;;9.65;;
18172;SDS011;9211;48.818;9.312;2022-12-07T02:37:10;14.70;;;9.10;;
18172;SDS011;9211;48.818;9.312;2022-12-07T02:39:46;15.48;;;9.23;;
18172;SDS011;9211;48.818;9.312;2022-12-07T02:42:19;16.65;;;9.60;;
18172;SDS011;9211;48.818;9.312;2022-12-07T02:44:52;15.60;;;9.25;;
18172;SDS011;9211;48.818;9.312;2022-12-07T02:47:20;15.75;;;9.40;;
18172;SDS011;9211;48.818;9.312;2022-12-07T02:49:50;13.77;;;8.43;;
18172;SDS011;9211;48.818;9.312;2022-12-07T02:52:18;14.68;;;8.80;;
18172;SDS011;9211;48.818;9.312;2022-12-07T02:54:45;14.95;;;9.32;;
18172;SDS011;9211;48.818;9.312;2022-12-07T02:57:16;14.13;;;9.10;;
18172;SDS011;9211;48.818;9.312;2022-12-07T02:59:59;13.98;;;9.02;;
18172;SDS011;9211;48.818;9.312;2022-12-07T03:02:53;15.70;;;8.88;;
18172;SDS011;9211;48.818;9.312;2022-12-07T03:05:37;16.08;;;9.02;;
18172;SDS011;9211;48.818;9.312;2022-12-07T03:08:13;15.63;;;9.23;;
18172;SDS011;9211;48.818;9.312;2022-12-07T03:10:46;16.60;;;9.20;;
18172;SDS011;9211;48.818;9.312;2022-12-07T03:13:19;15.73;;;9.30;;
18172;SDS011;9211;48.818;9.312;2022-12-07T03:15:53;15.60;;;8.88;;
18172;SDS011;9211;48.818;9.312;2022-12-07T03:18:25;14.05;;;8.45;;
18172;SDS011;9211;48.818;9.312;2022-12-07T03:20:57;15.02;;;9.23;;
18172;SDS011;9211;48.818;9.312;2022-12-07T03:23:28;16.05;;;8.95;;
18172;SDS011;9211;48.818;9.312;2022-12-07T03:25:58;14.65;;;9.02;;
18172;SDS011;9211;48.818;9.312;2022-12-07T03:28:28;15.00;;;8.75;;
18172;SDS011;9211;48.818;9.312;2022-12-07T03:31:01;15.68;;;9.40;;
18172;SDS011;9211;48.818;9.312;2022-12-07T03:33:33;14.98;;;8.32;;
18172;SDS011;9211;48.818;9.312;2022-12-07T03:36:06;14.82;;;9.00;;
18172;SDS011;9211;48.818;9.312;2022-12-07T03:38:39;15.85;;;9.10;;
18172;SDS011;9211;48.818;9.312;2022-12-07T03:41:09;16.13;;;9.38;;
18172;SDS011;9211;48.818;9.312;2022-12-07T03:43:42;14.73;;;9.18;;
18172;SDS011;9211;48.818;9.312;2022-12-07T03:46:14;14.48;;;8.70;;
18172;SDS011;9211;48.818;9.312;2022-12-07T03:48:46;15.40;;;9.00;;
18172;SDS011;9211;48.818;9.312;2022-12-07T03:51:22;18.02;;;9.45;;
18172;SDS011;9211;48.818;9.312;2022-12-07T03:53:54;16.98;;;9.70;;
18172;SDS011;9211;48.818;9.312;2022-12-07T03:56:25;15.93;;;9.20;;
18172;SDS011;9211;48.818;9.312;2022-12-07T03:58:53;15.77;;;9.23;;
18172;SDS011;9211;48.818;9.312;2022-12-07T04:01:22;15.98;;;8.98;;
18172;SDS011;9211;48.818;9.312;2022-12-07T04:03:50;16.98;;;9.13;;
18172;SDS011;9211;48.818;9.312;2022-12-07T04:06:17;15.20;;;8.60;;
18172;SDS011;9211;48.818;9.312;2022-12-07T04:08:44;15.37;;;9.10;;
18172;SDS011;9211;48.818;9.312;2022-12-07T04:11:11;16.50;;;8.90;;
18172;SDS011;9211;48.818;9.312;2022-12-07T04:13:38;13.80;;;8.50;;
18172;SDS011;9211;48.818;9.312;2022-12-07T04:16:19;16.00;;;8.68;;
18172;SDS011;9211;48.818;9.312;2022-12-07T04:18:47;15.68;;;8.82;;
18172;SDS011;9211;48.818;9.312;2022-12-07T04:21:14;16.05;;;8.85;;
18172;SDS011;9211;48.818;9.312;2022-12-07T04:23:41;15.52;;;9.25;;
18172;SDS011;9211;48.818;9.312;2022-12-07T04:26:08;15.00;;;8.73;;
18172;SDS011;9211;48.818;9.312;2022-12-07T04:28:35;15.98;;;9.15;;
18172;SDS011;9211;48.818;9.312;2022-12-07T04:31:01;14.32;;;8.30;;
18172;SDS011;9211;48.818;9.312;2022-12-07T04:33:28;17.52;;;8.75;;
18172;SDS011;9211;48.818;9.312;2022-12-07T04:35:57;16.93;;;9.40;;
18172;SDS011;9211;48.818;9.312;2022-12-07T04:38:24;15.45;;;9.15;;
18172;SDS011;9211;48.818;9.312;2022-12-07T04:40:51;16.65;;;9.73;;
18172;SDS011;9211;48.818;9.312;2022-12-07T04:43:17;16.70;;;9.50;;
18172;SDS011;9211;48.818;9.312;2022-12-07T04:45:45;16.77;;;9.45;;
18172;SDS011;9211;48.818;9.312;2022-12-07T04:48:13;18.85;;;9.77;;
18172;SDS011;9211;48.818;9.312;2022-12-07T04:50:40;19.02;;;10.23;;
18172;SDS011;9211;48.818;9.312;2022-12-07T04:53:08;17.50;;;9.85;;
18172;SDS011;9211;48.818;9.312;2022-12-07T04:55:35;16.45;;;9.50;;
18172;SDS011;9211;48.818;9.312;2022-12-07T04:58:02;16.67;;;9.70;;
18172;SDS011;9211;48.818;9.312;2022-12-07T05:00:29;17.27;;;9.40;;
18172;SDS011;9211;48.818;9.312;2022-12-07T05:02:56;18.23;;;9.65;;
18172;SDS011;9211;48.818;9.312;2022-12-07T05:05:23;17.88;;;10.15;;
18172;SDS011;9211;48.818;9.312;2022-12-07T05:07:50;20.63;;;11.13;;
18172;SDS011;9211;48.818;9.312;2022-12-07T05:10:18;19.80;;;10.05;;
18172;SDS011;9211;48.818;9.312;2022-12-07T05:12:45;17.73;;;9.80;;
18172;SDS011;9211;48.818;9.312;2022-12-07T05:15:13;15.98;;;9.02;;
18172;SDS011;9211;48.818;9.312;2022-12-07T05:17:41;15.63;;;8.95;;
18172;SDS011;9211;48.818;9.312;2022-12-07T05:20:08;15.68;;;8.95;;
18172;SDS011;9211;48.818;9.312;2022-12-07T05:22:36;18.98;;;9.82;;
18172;SDS011;9211;48.818;9.312;2022-12-07T05:25:03;17.63;;;9.43;;
18172;SDS011;9211;48.818;9.312;2022-12-07T05:27:31;18.70;;;9.48;;
18172;SDS011;9211;48.818;9.312;2022-12-07T05:29:58;16.58;;;9.57;;
18172;SDS011;9211;48.818;9.312;2022-12-07T05:32:25;16.77;;;10.13;;
18172;SDS011;9211;48.818;9.312;2022-12-07T05:34:52;17.37;;;9.60;;
18172;SDS011;9211;48.818;9.312;2022-12-07T05:37:20;16.80;;;9.60;;
18172;SDS011;9211;48.818;9.312;2022-12-07T05:39:47;17.85;;;9.95;;
18172;SDS011;9211;48.818;9.312;2022-12-07T05:42:13;19.53;;;10.93;;
18172;SDS011;9211;48.818;9.312;2022-12-07T05:44:43;17.87;;;10.77;;
18172;SDS011;9211;48.818;9.312;2022-12-07T05:47:11;18.20;;;9.93;;
18172;SDS011;9211;48.818;9.312;2022-12-07T05:49:40;17.23;;;9.35;;
18172;SDS011;9211;48.818;9.312;2022-12-07T05:52:07;16.77;;;9.88;;
18172;SDS011;9211;48.818;9.312;2022-12-07T05:54:34;18.67;;;11.02;;
18172;SDS011;9211;48.818;9.312;2022-12-07T05:57:01;18.70;;;11.10;;
18172;SDS011;9211;48.818;9.312;2022-12-07T05:59:28;17.35;;;10.45;;
18172;SDS011;9211;48.818;9.312;2022-12-07T06:01:56;18.38;;;9.90;;
18172;SDS011;9211;48.818;9.312;2022-12-07T06:04:25;16.08;;;9.60;;
18172;SDS011;9211;48.818;9.312;2022-12-07T06:06:53;17.02;;;9.70;;
18172;SDS011;9211;48.818;9.312;2022-12-07T06:09:21;18.75;;;9.88;;
18172;SDS011;9211;48.818;9.312;2022-12-07T06:11:51;18.60;;;10.15;;
18172;SDS011;9211;48.818;9.312;2022-12-07T06:14:35;19.05;;;9.65;;
18172;SDS011;9211;48.818;9.312;2022-12-07T06:17:04;17.75;;;9.75;;
18172;SDS011;9211;48.818;9.312;2022-12-07T06:19:31;15.52;;;8.90;;
18172;SDS011;9211;48.818;9.312;2022-12-07T06:21:58;16.52;;;9.00;;
18172;SDS011;9211;48.818;9.312;2022-12-07T06:24:25;17.10;;;9.48;;
18172;SDS011;9211;48.818;9.312;2022-12-07T06:26:52;16.15;;;9.27;;
18172;SDS011;9211;48.818;9.312;2022-12-07T06:29:19;16.73;;;9.32;;
18172;SDS011;9211;48.818;9.312;2022-12-07T06:31:47;16.17;;;9.63;;
18172;SDS011;9211;48.818;9.312;2022-12-07T06:34:16;17.55;;;9.55;;
18172;SDS011;9211;48.818;9.312;2022-12-07T06:36:44;15.00;;;8.98;;
18172;SDS011;9211;48.818;9.312;2022-12-07T06:39:16;17.55;;;9.20;;
18172;SDS011;9211;48.818;9.312;2022-12-07T06:41:44;16.73;;;9.48;;
18172;SDS011;9211;48.818;9.312;2022-12-07T06:44:10;15.25;;;8.73;;
18172;SDS011;9211;48.818;9.312;2022-12-07T06:46:37;19.13;;;9.20;;
18172;SDS011;9211;48.818;9.312;2022-12-07T06:49:04;16.45;;;9.48;;
18172;SDS011;9211;48.818;9.312;2022-12-07T06:51:33;17.88;;;10.50;;
18172;SDS011;9211;48.818;9.312;2022-12-07T06:54:01;17.55;;;10.43;;
18172;SDS011;9211;48.818;9.312;2022-12-07T06:56:28;17.40;;;9.77;;
18172;SDS011;9211;48.818;9.312;2022-12-07T06:58:55;17.83;;;9.40;;
18172;SDS011;9211;48.818;9.312;2022-12-07T07:01:22;24.25;;;13.63;;
18172;SDS011;9211;48.818;9.312;2022-12-07T07:03:49;28.13;;;15.05;;
18172;SDS011;9211;48.818;9.312;2022-12-07T07:06:17;26.63;;;13.70;;
18172;SDS011;9211;48.818;9.312;2022-12-07T07:08:45;24.40;;;12.98;;
18172;SDS011;9211;48.818;9.312;2022-12-07T07:11:12;20.80;;;11.57;;
18172;SDS011;9211;48.818;9.312;2022-12-07T07:13:39;22.45;;;12.30;;
18172;SDS011;9211;48.818;9.312;2022-12-07T07:16:07;21.77;;;11.98;;
18172;SDS011;9211;48.818;9.312;2022-12-07T07:18:34;19.30;;;11.00;;
18172;SDS011;9211;48.818;9.312;2022-12-07T07:21:01;21.00;;;11.10;;
18172;SDS011;9211;48.818;9.312;2022-12-07T07:23:28;20.10;;;11.18;;
18172;SDS011;9211;48.818;9.312;2022-12-07T07:25:57;18.33;;;10.07;;
18172;SDS011;9211;48.818;9.312;2022-12-07T07:28:24;18.52;;;10.90;;
18172;SDS011;9211;48.818;9.312;2022-12-07T07:30:51;21.48;;;10.50;;
18172;SDS011;9211;48.818;9.312;2022-12-07T07:33:18;18.88;;;10.20;;
18172;SDS011;9211;48.818;9.312;2022-12-07T07:35:45;20.25;;;10.73;;
18172;SDS011;9211;48.818;9.312;2022-12-07T07:38:12;23.25;;;11.13;;
18172;SDS011;9211;48.818;9.312;2022-12-07T07:40:39;24.90;;;11.68;;
18172;SDS011;9211;48.818;9.312;2022-12-07T07:43:07;23.27;;;12.32;;
18172;SDS011;9211;48.818;9.312;2022-12-07T07:45:34;26.83;;;12.50;;
18172;SDS011;9211;48.818;9.312;2022-12-07T07:48:02;22.63;;;11.70;;
18172;SDS011;9211;48.818;9.312;2022-12-07T07:50:29;19.77;;;10.85;;
18172;SDS011;9211;48.818;9.312;2022-12-07T07:52:56;18.88;;;10.25;;
18172;SDS011;9211;48.818;9.312;2022-12-07T07:55:24;19.83;;;9.98;;
18172;SDS011;9211;48.818;9.312;2022-12-07T07:57:50;20.65;;;10.02;;
18172;SDS011;9211;48.818;9.312;2022-12-07T08:00:19;16.67;;;9.17;;
18172;SDS011;9211;48.818;9.312;2022-12-07T08:02:47;20.70;;;9.77;;
18172;SDS011;9211;48.818;9.312;2022-12-07T08:05:15;16.00;;;9.10;;
18172;SDS011;9211;48.818;9.312;2022-12-07T08:07:42;17.23;;;9.27;;
18172;SDS011;9211;48.818;9.312;2022-12-07T08:10:10;18.75;;;9.10;;
18172;SDS011;9211;48.818;9.312;2022-12-07T08:12:38;17.30;;;9.00;;
18172;SDS011;9211;48.818;9.312;2022-12-07T08:15:28;20.55;;;10.57;;
18172;SDS011;9211;48.818;9.312;2022-12-07T08:17:56;20.27;;;9.70;;
18172;SDS011;9211;48.818;9.312;2022-12-07T08:20:23;17.92;;;9.30;;
18172;SDS011;9211;48.818;9.312;2022-12-07T08:22:50;18.42;;;9.10;;
18172;SDS011;9211;48.818;9.312;2022-12-07T08:25:17;19.58;;;9.52;;
18172;SDS011;9211;48.818;9.312;2022-12-07T08:27:44;17.80;;;9.33;;
18172;SDS011;9211;48.818;9.312;2022-12-07T08:30:11;18.83;;;9.90;;
18172;SDS011;9211;48.818;9.312;2022-12-07T08:32:40;18.92;;;9.95;;
18172;SDS011;9211;48.818;9.312;2022-12-07T08:35:07;17.65;;;9.50;;
18172;SDS011;9211;48.818;9.312;2022-12-07T08:37:35;16.75;;;9.52;;
18172;SDS011;9211;48.818;9.312;2022-12-07T08:40:02;17.17;;;9.68;;
18172;SDS011;9211;48.818;9.312;2022-12-07T08:42:30;16.00;;;9.30;;
18172;SDS011;9211;48.818;9.312;2022-12-07T08:45:03;13.30;;;7.88;;
18172;SDS011;9211;48.818;9.312;2022-12-07T08:47:31;13.82;;;7.50;;
18172;SDS011;9211;48.818;9.312;2022-12-07T08:50:01;15.43;;;7.57;;
18172;SDS011;9211;48.818;9.312;2022-12-07T08:52:29;13.90;;;7.63;;
18172;SDS011;9211;48.818;9.312;2022-12-07T08:54:56;14.20;;;7.33;;
18172;SDS011;9211;48.818;9.312;2022-12-07T08:57:24;13.88;;;7.55;;
18172;SDS011;9211;48.818;9.312;2022-12-07T08:59:51;12.80;;;7.30;;
18172;SDS011;9211;48.818;9.312;2022-12-07T09:02:18;14.65;;;6.90;;
18172;SDS011;9211;48.818;9.312;2022-12-07T09:04:45;12.60;;;6.63;;
18172;SDS011;9211;48.818;9.312;2022-12-07T09:07:13;12.23;;;6.70;;
18172;SDS011;9211;48.818;9.312;2022-12-07T09:09:40;12.85;;;5.90;;
18172;SDS011;9211;48.818;9.312;2022-12-07T09:12:09;13.15;;;6.15;;
18172;SDS011;9211;48.818;9.312;2022-12-07T09:14:36;12.83;;;6.23;;
18172;SDS011;9211;48.818;9.312;2022-12-07T09:17:07;11.70;;;5.93;;
18172;SDS011;9211;48.818;9.312;2022-12-07T09:19:35;11.87;;;6.33;;
18172;SDS011;9211;48.818;9.312;2022-12-07T09:22:02;12.60;;;5.72;;
18172;SDS011;9211;48.818;9.312;2022-12-07T09:24:31;10.80;;;6.18;;
18172;SDS011;9211;48.818;9.312;2022-12-07T09:26:58;11.52;;;6.40;;
18172;SDS011;9211;48.818;9.312;2022-12-07T09:29:25;10.80;;;6.32;;
18172;SDS011;9211;48.818;9.312;2022-12-07T09:31:52;11.23;;;6.40;;
18172;SDS011;9211;48.818;9.312;2022-12-07T09:34:19;11.00;;;6.15;;
18172;SDS011;9211;48.818;9.312;2022-12-07T09:36:46;11.07;;;6.13;;
18172;SDS011;9211;48.818;9.312;2022-12-07T09:39:13;10.23;;;5.72;;
18172;SDS011;9211;48.818;9.312;2022-12-07T09:41:42;11.30;;;6.22;;
18172;SDS011;9211;48.818;9.312;2022-12-07T09:44:12;10.85;;;6.18;;
18172;SDS011;9211;48.818;9.312;2022-12-07T09:46:43;11.33;;;6.20;;
18172;SDS011;9211;48.818;9.312;2022-12-07T09:49:12;10.25;;;6.18;;
18172;SDS011;9211;48.818;9.312;2022-12-07T09:51:42;10.80;;;5.95;;
18172;SDS011;9211;48.818;9.312;2022-12-07T09:54:09;10.18;;;5.63;;
18172;SDS011;9211;48.818;9.312;2022-12-07T09:56:39;10.07;;;5.55;;
18172;SDS011;9211;48.818;9.312;2022-12-07T09:59:09;9.50;;;5.75;;
18172;SDS011;9211;48.818;9.312;2022-12-07T10:01:41;11.00;;;6.05;;
18172;SDS011;9211;48.818;9.312;2022-12-07T10:04:09;11.50;;;6.07;;
18172;SDS011;9211;48.818;9.312;2022-12-07T10:06:40;7.90;;;4.90;;
18172;SDS011;9211;48.818;9.312;2022-12-07T10:09:11;10.50;;;4.72;;
18172;SDS011;9211;48.818;9.312;2022-12-07T10:11:59;8.57;;;4.80;;
18172;SDS011;9211;48.818;9.312;2022-12-07T10:14:28;8.23;;;4.80;;
18172;SDS011;9211;48.818;9.312;2022-12-07T10:16:56;9.38;;;4.18;;
18172;SDS011;9211;48.818;9.312;2022-12-07T10:19:24;6.65;;;3.97;;
18172;SDS011;9211;48.818;9.312;2022-12-07T10:22:00;10.48;;;5.90;;
18172;SDS011;9211;48.818;9.312;2022-12-07T10:24:28;7.90;;;4.40;;
18172;SDS011;9211;48.818;9.312;2022-12-07T10:26:55;8.00;;;4.78;;
18172;SDS011;9211;48.818;9.312;2022-12-07T10:29:27;6.25;;;4.00;;
18172;SDS011;9211;48.818;9.312;2022-12-07T10:31:56;7.40;;;4.00;;
18172;SDS011;9211;48.818;9.312;2022-12-07T10:34:27;5.43;;;3.30;;
18172;SDS011;9211;48.818;9.312;2022-12-07T10:37:06;6.00;;;3.75;;
18172;SDS011;9211;48.818;9.312;2022-12-07T10:39:41;6.10;;;3.75;;
18172;SDS011;9211;48.818;9.312;2022-12-07T10:42:15;6.07;;;3.83;;
18172;SDS011;9211;48.818;9.312;2022-12-07T10:44:45;6.50;;;3.95;;
18172;SDS011;9211;48.818;9.312;2022-12-07T10:47:17;7.53;;;4.18;;
18172;SDS011;9211;48.818;9.312;2022-12-07T10:49:59;9.80;;;4.95;;
18172;SDS011;9211;48.818;9.312;2022-12-07T10:52:45;8.55;;;4.80;;
18172;SDS011;9211;48.818;9.312;2022-12-07T10:55:39;9.00;;;4.93;;
18172;SDS011;9211;48.818;9.312;2022-12-07T10:58:22;10.23;;;5.57;;
18172;SDS011;9211;48.818;9.312;2022-12-07T11:01:01;7.90;;;4.70;;
18172;SDS011;9211;48.818;9.312;2022-12-07T11:03:37;10.68;;;6.15;;
18172;SDS011;9211;48.818;9.312;2022-12-07T11:06:23;10.43;;;5.53;;
18172;SDS011;9211;48.818;9.312;2022-12-07T11:08:59;12.57;;;7.38;;
18172;SDS011;9211;48.818;9.312;2022-12-07T11:11:33;10.48;;;5.75;;
18172;SDS011;9211;48.818;9.312;2022-12-07T11:14:05;9.48;;;5.35;;
18172;SDS011;9211;48.818;9.312;2022-12-07T11:16:46;8.27;;;5.00;;
18172;SDS011;9211;48.818;9.312;2022-12-07T11:19:25;8.47;;;4.70;;
18172;SDS011;9211;48.818;9.312;2022-12-07T11:22:06;7.75;;;4.70;;
18172;SDS011;9211;48.818;9.312;2022-12-07T11:24:40;7.47;;;4.55;;
18172;SDS011;9211;48.818;9.312;2022-12-07T11:27:18;8.52;;;4.40;;
18172;SDS011;9211;48.818;9.312;2022-12-07T11:30:00;8.00;;;4.75;;
18172;SDS011;9211;48.818;9.312;2022-12-07T11:32:40;9.07;;;4.47;;
18172;SDS011;9211;48.818;9.312;2022-12-07T11:35:28;23.95;;;11.10;;
18172;SDS011;9211;48.818;9.312;2022-12-07T11:38:07;28.65;;;12.70;;
18172;SDS011;9211;48.818;9.312;2022-12-07T11:40:37;16.90;;;8.13;;
18172;SDS011;9211;48.818;9.312;2022-12-07T11:43:09;9.95;;;5.32;;
18172;SDS011;9211;48.818;9.312;2022-12-07T11:45:44;8.55;;;4.90;;
18172;SDS011;9211;48.818;9.312;2022-12-07T11:48:21;7.82;;;5.00;;
18172;SDS011;9211;48.818;9.312;2022-12-07T11:50:55;8.40;;;4.32;;
18172;SDS011;9211;48.818;9.312;2022-12-07T11:53:25;7.72;;;4.60;;
18172;SDS011;9211;48.818;9.312;2022-12-07T11:55:56;10.10;;;4.88;;
18172;SDS011;9211;48.818;9.312;2022-12-07T11:58:38;8.15;;;4.78;;
18172;SDS011;9211;48.818;9.312;2022-12-07T12:01:14;7.78;;;4.90;;
18172;SDS011;9211;48.818;9.312;2022-12-07T12:03:58;9.95;;;5.55;;
18172;SDS011;9211;48.818;9.312;2022-12-07T12:06:30;9.35;;;5.80;;
18172;SDS011;9211;48.818;9.312;2022-12-07T12:09:01;11.95;;;7.03;;
18172;SDS011;9211;48.818;9.312;2022-12-07T12:11:37;13.15;;;6.93;;
18172;SDS011;9211;48.818;9.312;2022-12-07T12:14:37;11.43;;;6.63;;
18172;SDS011;9211;48.818;9.312;2022-12-07T12:17:21;11.82;;;6.78;;
18172;SDS011;9211;48.818;9.312;2022-12-07T12:20:03;13.40;;;7.47;;
18172;SDS011;9211;48.818;9.312;2022-12-07T12:22:40;12.50;;;6.93;;
18172;SDS011;9211;48.818;9.312;2022-12-07T12:25:13;13.50;;;7.25;;
18172;SDS011;9211;48.818;9.312;2022-12-07T12:27:46;12.65;;;7.07;;
18172;SDS011;9211;48.818;9.312;2022-12-07T12:30:24;13.27;;;7.43;;
18172;SDS011;9211;48.818;9.312;2022-12-07T12:33:00;11.75;;;6.88;;
18172;SDS011;9211;48.818;9.312;2022-12-07T12:35:31;10.77;;;6.60;;
18172;SDS011;9211;48.818;9.312;2022-12-07T12:40:55;11.37;;;6.73;;
18172;SDS011;9211;48.818;9.312;2022-12-07T12:55:22;13.75;;;7.45;;
18172;SDS011;9211;48.818;9.312;2022-12-07T12:58:28;17.48;;;8.30;;
18172;SDS011;9211;48.818;9.312;2022-12-07T13:04:14;10.48;;;6.47;;
18172;SDS011;9211;48.818;9.312;2022-12-07T13:06:48;10.60;;;6.25;;
18172;SDS011;9211;48.818;9.312;2022-12-07T13:09:20;10.93;;;6.22;;
18172;SDS011;9211;48.818;9.312;2022-12-07T13:11:50;12.55;;;6.50;;
18172;SDS011;9211;48.818;9.312;2022-12-07T13:20:43;12.35;;;6.20;;
18172;SDS011;9211;48.818;9.312;2022-12-07T13:23:31;12.10;;;7.30;;
18172;SDS011;9211;48.818;9.312;2022-12-07T13:26:08;11.88;;;6.93;;
18172;SDS011;9211;48.818;9.312;2022-12-07T13:28:41;12.13;;;6.90;;
18172;SDS011;9211;48.818;9.312;2022-12-07T13:31:11;14.73;;;8.10;;
18172;SDS011;9211;48.818;9.312;2022-12-07T13:33:50;16.93;;;9.33;;
18172;SDS011;9211;48.818;9.312;2022-12-07T13:36:21;13.32;;;7.80;;
18172;SDS011;9211;48.818;9.312;2022-12-07T13:38:51;11.88;;;6.93;;
18172;SDS011;9211;48.818;9.312;2022-12-07T13:41:25;11.90;;;6.75;;
18172;SDS011;9211;48.818;9.312;2022-12-07T13:43:58;13.02;;;7.28;;
18172;SDS011;9211;48.818;9.312;2022-12-07T13:46:31;11.68;;;6.60;;
18172;SDS011;9211;48.818;9.312;2022-12-07T13:49:13;12.18;;;6.88;;
18172;SDS011;9211;48.818;9.312;2022-12-07T13:51:47;12.13;;;7.13;;
18172;SDS011;9211;48.818;9.312;2022-12-07T13:54:15;11.93;;;6.77;;
18172;SDS011;9211;48.818;9.312;2022-12-07T13:56:43;12.57;;;7.05;;
18172;SDS011;9211;48.818;9.312;2022-12-07T13:59:14;11.70;;;7.13;;
18172;SDS011;9211;48.818;9.312;2022-12-07T14:01:43;12.27;;;7.15;;
18172;SDS011;9211;48.818;9.312;2022-12-07T14:04:16;10.77;;;7.17;;
18172;SDS011;9211;48.818;9.312;2022-12-07T14:06:55;11.57;;;7.13;;
18172;SDS011;9211;48.818;9.312;2022-12-07T14:09:23;12.90;;;7.47;;
18172;SDS011;9211;48.818;9.312;2022-12-07T14:11:53;12.63;;;6.90;;
18172;SDS011;9211;48.818;9.312;2022-12-07T14:14:22;13.30;;;7.67;;
18172;SDS011;9211;48.818;9.312;2022-12-07T14:16:55;20.95;;;10.30;;
18172;SDS011;9211;48.818;9.312;2022-12-07T14:22:26;14.32;;;8.48;;
18172;SDS011;9211;48.818;9.312;2022-12-07T14:24:59;12.68;;;7.45;;
18172;SDS011;9211;48.818;9.312;2022-12-07T14:27:48;12.20;;;7.05;;
18172;SDS011;9211;48.818;9.312;2022-12-07T14:30:21;13.47;;;7.80;;
18172;SDS011;9211;48.818;9.312;2022-12-07T14:32:51;16.33;;;8.00;;
18172;SDS011;9211;48.818;9.312;2022-12-07T14:35:20;16.92;;;7.95;;
18172;SDS011;9211;48.818;9.312;2022-12-07T14:37:47;13.07;;;7.70;;
18172;SDS011;9211;48.818;9.312;2022-12-07T14:40:16;15.23;;;8.25;;
18172;SDS011;9211;48.818;9.312;2022-12-07T14:42:45;17.77;;;9.43;;
18172;SDS011;9211;48.818;9.312;2022-12-07T14:45:16;21.90;;;12.57;;
18172;SDS011;9211;48.818;9.312;2022-12-07T14:47:45;24.15;;;13.27;;
18172;SDS011;9211;48.818;9.312;2022-12-07T14:50:13;23.10;;;13.70;;
18172;SDS011;9211;48.818;9.312;2022-12-07T14:52:42;19.98;;;11.57;;
18172;SDS011;9211;48.818;9.312;2022-12-07T14:55:13;16.45;;;10.40;;
18172;SDS011;9211;48.818;9.312;2022-12-07T14:57:42;17.75;;;9.90;;
18172;SDS011;9211;48.818;9.312;2022-12-07T15:00:14;18.02;;;11.27;;
18172;SDS011;9211;48.818;9.312;2022-12-07T15:02:42;20.40;;;10.93;;
18172;SDS011;9211;48.818;9.312;2022-12-07T15:05:09;19.50;;;11.00;;
18172;SDS011;9211;48.818;9.312;2022-12-07T15:07:36;22.08;;;11.73;;
18172;SDS011;9211;48.818;9.312;2022-12-07T15:10:04;19.00;;;10.32;;
18172;SDS011;9211;48.818;9.312;2022-12-07T15:12:32;20.05;;;11.15;;
18172;SDS011;9211;48.818;9.312;2022-12-07T15:14:59;18.58;;;10.95;;
18172;SDS011;9211;48.818;9.312;2022-12-07T15:17:28;22.33;;;13.23;;
18172;SDS011;9211;48.818;9.312;2022-12-07T15:19:55;19.17;;;10.80;;
18172;SDS011;9211;48.818;9.312;2022-12-07T15:22:22;21.33;;;10.80;;
18172;SDS011;9211;48.818;9.312;2022-12-07T15:24:48;19.05;;;10.70;;
18172;SDS011;9211;48.818;9.312;2022-12-07T15:27:15;19.97;;;10.60;;
18172;SDS011;9211;48.818;9.312;2022-12-07T15:29:42;18.98;;;10.98;;
18172;SDS011;9211;48.818;9.312;2022-12-07T15:32:09;20.67;;;10.40;;
18172;SDS011;9211;48.818;9.312;2022-12-07T15:34:38;19.98;;;10.43;;
18172;SDS011;9211;48.818;9.312;2022-12-07T15:37:05;19.07;;;10.73;;